Time;durP1;ratioP1;P1;durP2;ratioP2;P2;SDS_P1;SDS_P2;PMS_P1;PMS_P2;Temp;Humidity;BMP_temperature;BMP_pressure;BME280_temperature;BME280_humidity;BME280_pressure;Samples;Min_cycle;Max_cycle;Signal;HPM_P1;HPM_P2
2022/07/12 00:02:02;;;;;;;4.00;2.15;;;;;;;23.54;54.20;98761.72;5089633;28;20043;-43
2022/07/12 00:04:29;;;;;;;4.60;2.20;;;;;;;23.53;54.33;98757.41;5088301;28;20123;-44
2022/07/12 00:06:55;;;;;;;3.58;2.20;;;;;;;23.51;54.46;98762.03;5089583;28;20036;-44
2022/07/12 00:09:20;;;;;;;4.93;2.47;;;;;;;23.51;54.53;98755.88;5069502;28;20036;-45
2022/07/12 00:11:46;;;;;;;5.78;2.38;;;;;;;23.51;54.66;98758.53;5086620;28;20040;-43
2022/07/12 00:14:12;;;;;;;8.38;2.38;;;;;;;23.50;54.76;98756.88;5069663;28;20047;-45
2022/07/12 00:16:39;;;;;;;4.05;2.25;;;;;;;23.50;54.77;98744.44;5089406;28;20044;-42
2022/07/12 00:19:04;;;;;;;4.93;2.60;;;;;;;23.52;54.91;98745.13;5089795;28;20048;-43
2022/07/12 00:21:30;;;;;;;5.50;2.67;;;;;;;23.39;54.87;98722.63;5090068;28;20043;-45
2022/07/12 00:23:56;;;;;;;5.38;2.53;;;;;;;23.55;54.63;98749.28;5074608;28;20086;-43
2022/07/12 00:26:22;;;;;;;4.70;3.00;;;;;;;23.56;54.77;98748.28;5093115;28;20036;-43
2022/07/12 00:28:48;;;;;;;5.45;2.45;;;;;;;23.57;55.07;98748.13;5093690;28;20063;-44
2022/07/12 00:31:14;;;;;;;4.25;2.40;;;;;;;23.58;55.28;98754.28;5093267;28;20044;-44
2022/07/12 00:33:40;;;;;;;3.13;2.33;;;;;;;23.57;55.46;98747.28;5093473;28;20050;-50
2022/07/12 00:36:06;;;;;;;2.90;2.60;;;;;;;23.44;55.62;98731.78;5075315;28;20055;-44
2022/07/12 00:38:32;;;;;;;3.83;2.40;;;;;;;23.56;55.76;98745.63;5075366;28;20123;-45
2022/07/12 00:40:58;;;;;;;5.00;2.38;;;;;;;23.54;55.80;98740.50;5093300;28;20044;-46
2022/07/12 00:43:24;;;;;;;3.72;2.42;;;;;;;23.53;56.03;98743.28;5093370;28;20044;-44
2022/07/12 00:45:50;;;;;;;2.60;2.22;;;;;;;23.50;56.46;98740.97;5093016;28;20032;-44
2022/07/12 00:48:18;;;;;;;2.92;2.33;;;;;;;23.45;56.70;98740.53;5075638;28;20036;-45
2022/07/12 00:50:49;;;;;;;3.42;2.63;;;;;;;23.41;56.76;98740.03;5074946;28;20427;-47
2022/07/12 00:53:18;;;;;;;3.63;2.60;;;;;;;23.39;56.88;98744.69;5091217;28;20036;-44
2022/07/12 00:55:44;;;;;;;3.95;2.60;;;;;;;23.36;57.04;98741.50;5075109;28;20135;-46
2022/07/12 00:58:10;;;;;;;6.30;2.85;;;;;;;23.33;57.16;98729.41;5074541;28;20048;-44
2022/07/12 01:00:35;;;;;;;4.18;2.42;;;;;;;23.32;57.05;98735.69;5104455;28;20046;-43
2022/07/12 01:03:02;;;;;;;4.07;2.60;;;;;;;23.27;57.21;98721.22;5093144;28;20073;-43
2022/07/12 01:05:29;;;;;;;5.40;2.53;;;;;;;23.29;57.27;98725.38;5093107;28;20044;-43
2022/07/12 01:07:55;;;;;;;3.40;2.53;;;;;;;23.30;57.18;98732.34;5074966;28;20047;-44
2022/07/12 01:10:22;;;;;;;4.07;2.95;;;;;;;23.31;57.21;98725.22;5074789;28;20043;-43
2022/07/12 01:13:13;;;;;;;2.95;2.60;;;;;;;23.30;57.33;98711.13;5092637;28;20097;-44
2022/07/12 01:15:40;;;;;;;3.25;2.60;;;;;;;23.30;57.64;98704.97;5057499;28;20040;-46
2022/07/12 01:18:06;;;;;;;5.80;3.00;;;;;;;23.28;57.70;98702.50;5091952;28;20048;-45
2022/07/12 01:20:32;;;;;;;5.50;2.90;;;;;;;23.26;57.92;98695.69;5092717;28;20032;-43
2022/07/12 01:22:59;;;;;;;5.63;3.13;;;;;;;23.23;58.13;98692.38;5092420;28;20060;-43
2022/07/12 01:25:25;;;;;;;6.70;2.97;;;;;;;23.21;58.48;98673.13;5074246;28;20097;-43
2022/07/12 01:27:51;;;;;;;4.32;2.78;;;;;;;23.19;58.58;98680.38;5091516;28;20093;-45
2022/07/12 01:30:17;;;;;;;3.97;2.80;;;;;;;23.17;58.39;98669.13;5074686;28;20067;-46
2022/07/12 01:32:43;;;;;;;4.45;3.38;;;;;;;23.16;58.57;98664.81;5074133;28;20067;-42
2022/07/12 01:35:10;;;;;;;4.30;3.20;;;;;;;23.15;58.63;98675.56;5073376;28;20089;-43
2022/07/12 01:37:38;;;;;;;6.38;3.35;;;;;;;23.14;58.93;98672.06;5091816;28;20047;-45
2022/07/12 01:40:06;;;;;;;4.90;3.00;;;;;;;23.13;58.92;98674.91;5092414;28;20036;-43
2022/07/12 01:42:32;;;;;;;3.42;2.85;;;;;;;23.11;59.48;98676.88;5092621;28;20046;-45
2022/07/12 01:44:59;;;;;;;3.38;3.08;;;;;;;23.08;59.52;98669.25;5074422;28;20063;-44
2022/07/12 01:47:29;;;;;;;4.15;3.00;;;;;;;23.06;59.83;98674.69;5073722;28;20089;-43
2022/07/12 01:49:55;;;;;;;4.30;3.10;;;;;;;23.04;60.17;98679.31;5092375;28;20045;-45
2022/07/12 01:52:21;;;;;;;5.60;3.17;;;;;;;23.02;60.42;98670.69;5073952;28;20194;-44
2022/07/12 01:54:47;;;;;;;4.78;3.10;;;;;;;22.91;60.69;98644.44;5092024;28;20487;-44
2022/07/12 01:57:13;;;;;;;3.63;2.97;;;;;;;23.00;60.70;98643.50;5073389;28;20530;-45
2022/07/12 01:59:40;;;;;;;10.70;3.28;;;;;;;22.98;61.04;98650.75;5091849;28;20047;-45
2022/07/12 02:02:07;;;;;;;6.07;3.75;;;;;;;23.01;60.90;98636.38;5073581;28;20095;-45
2022/07/12 02:04:33;;;;;;;5.18;3.40;;;;;;;23.02;60.92;98630.09;5073987;28;20100;-47
2022/07/12 02:07:00;;;;;;;6.30;3.88;;;;;;;22.97;61.20;98627.09;5091328;28;20044;-46
2022/07/12 02:09:27;;;;;;;6.35;3.97;;;;;;;23.03;61.37;98635.22;5055365;28;20132;-42
2022/07/12 02:11:53;;;;;;;4.90;3.95;;;;;;;23.03;61.42;98632.56;5071539;28;20040;-46
2022/07/12 02:14:19;;;;;;;8.52;4.30;;;;;;;23.02;61.70;98632.75;5070153;28;20040;-43
2022/07/12 02:16:45;;;;;;;7.82;4.60;;;;;;;23.01;61.70;98633.72;5073295;28;20507;-44
2022/07/12 02:19:12;;;;;;;7.05;4.78;;;;;;;22.93;61.80;98617.75;5073027;28;20538;-44
2022/07/12 02:21:38;;;;;;;9.63;5.25;;;;;;;22.98;61.78;98610.16;5091482;28;20496;-43
2022/07/12 02:24:04;;;;;;;6.90;4.50;;;;;;;22.97;61.97;98614.66;5091546;28;20074;-47
2022/07/12 02:26:33;;;;;;;7.82;5.03;;;;;;;22.95;62.11;98603.38;5069602;28;20036;-44
2022/07/12 02:28:59;;;;;;;7.65;4.65;;;;;;;22.93;62.16;98585.94;5072364;28;20036;-43
2022/07/12 02:31:25;;;;;;;6.82;4.45;;;;;;;23.02;62.27;98588.50;5072714;28;20504;-44
2022/07/12 02:33:51;;;;;;;8.52;4.43;;;;;;;23.03;62.25;98597.28;5091275;28;20047;-44
2022/07/12 02:36:17;;;;;;;10.35;4.97;;;;;;;23.07;62.25;98586.22;5072910;28;20040;-42
2022/07/12 02:38:43;;;;;;;8.43;4.75;;;;;;;23.09;62.23;98591.34;5090278;28;20044;-43
2022/07/12 02:41:09;;;;;;;6.95;4.35;;;;;;;23.03;62.13;98576.88;5072045;28;20036;-44
2022/07/12 02:43:34;;;;;;;10.27;5.45;;;;;;;23.09;62.36;98591.34;5091057;28;20036;-45
2022/07/12 02:46:08;;;;;;;6.35;4.45;;;;;;;23.08;62.53;98587.06;5071988;28;20035;-43
2022/07/12 02:48:34;;;;;;;10.02;4.93;;;;;;;23.07;62.58;98595.97;5071876;28;20032;-44
2022/07/12 02:51:00;;;;;;;8.18;5.93;;;;;;;23.06;62.47;98597.81;5090850;28;20047;-44
2022/07/12 02:53:26;;;;;;;7.00;4.57;;;;;;;22.91;62.77;98566.75;5090955;28;20054;-43
2022/07/12 02:55:53;;;;;;;8.32;4.93;;;;;;;22.90;62.66;98575.66;5090752;28;20051;-42
2022/07/12 02:58:19;;;;;;;8.50;4.57;;;;;;;22.93;62.93;98575.34;5090714;28;20040;-44
2022/07/12 03:00:45;;;;;;;5.97;4.60;;;;;;;23.08;62.60;98587.06;5072514;28;20059;-43
2022/07/12 03:03:14;;;;;;;5.30;4.13;;;;;;;23.06;62.54;98597.81;5090618;28;20184;-44
2022/07/12 03:05:41;;;;;;;6.05;4.45;;;;;;;23.01;62.65;98592.16;5090631;28;20114;-45
2022/07/12 03:08:08;;;;;;;8.32;4.35;;;;;;;22.93;62.78;98585.94;5072660;28;20040;-44
2022/07/12 03:10:35;;;;;;;7.05;4.70;;;;;;;22.87;63.16;98592.75;5090766;28;20036;-44
2022/07/12 03:13:01;;;;;;;7.88;4.28;;;;;;;22.83;63.39;98595.81;5072549;28;20130;-45
2022/07/12 03:15:30;;;;;;;7.43;4.85;;;;;;;22.78;63.86;98605.09;5090294;28;20193;-43
2022/07/12 03:17:57;;;;;;;7.72;4.20;;;;;;;22.75;63.96;98601.94;5090411;28;20055;-42
2022/07/12 03:20:23;;;;;;;7.25;4.40;;;;;;;22.75;63.49;98602.75;5055098;28;20527;-44
2022/07/12 03:22:51;;;;;;;6.20;3.63;;;;;;;22.79;62.68;98597.97;5052270;28;20432;-45
2022/07/12 03:25:18;;;;;;;7.60;4.07;;;;;;;22.82;62.52;98602.94;5052698;28;20040;-44
2022/07/12 03:27:44;;;;;;;4.68;3.55;;;;;;;22.77;61.81;98592.81;5089966;28;20054;-44
2022/07/12 03:30:11;;;;;;;4.82;3.90;;;;;;;22.90;61.21;98604.81;5071781;28;20035;-46
2022/07/12 03:32:37;;;;;;;6.97;4.47;;;;;;;22.98;61.18;98611.00;5089961;28;20050;-45
2022/07/12 03:35:05;;;;;;;7.22;3.90;;;;;;;22.95;60.91;98594.59;5090404;28;20035;-45
2022/07/12 03:37:48;;;;;;;7.05;4.03;;;;;;;23.06;61.01;98607.56;5071854;28;20818;-44
2022/07/12 03:40:15;;;;;;;4.78;3.90;;;;;;;23.06;60.98;98623.47;5068357;28;20512;-43
2022/07/12 03:42:42;;;;;;;8.68;4.15;;;;;;;23.02;61.07;98617.66;5052380;28;20055;-44
2022/07/12 03:45:08;;;;;;;7.53;4.50;;;;;;;22.94;61.25;98600.88;5085789;28;20036;-46
2022/07/12 03:47:38;;;;;;;11.43;4.55;;;;;;;23.19;60.76;98616.75;5089806;28;20035;-44
2022/07/12 03:50:11;;;;;;;5.38;4.10;;;;;;;23.32;60.43;98618.13;5089620;28;20040;-44
2022/07/12 03:52:37;;;;;;;6.32;4.28;;;;;;;23.32;60.53;98621.63;5071963;28;20168;-45
2022/07/12 03:55:04;;;;;;;8.00;4.13;;;;;;;23.36;60.29;98614.16;5090163;28;20450;-44
2022/07/12 03:57:31;;;;;;;9.80;4.30;;;;;;;23.32;60.18;98596.91;5072514;28;20040;-42
2022/07/12 03:59:57;;;;;;;6.43;4.20;;;;;;;23.46;60.04;98615.75;5093848;28;20046;-45
2022/07/12 04:02:23;;;;;;;6.50;4.50;;;;;;;23.48;60.21;98605.81;5075504;28;20040;-43
2022/07/12 04:04:50;;;;;;;5.53;4.40;;;;;;;23.50;60.29;98610.97;5094201;28;20046;-43
2022/07/12 04:07:16;;;;;;;7.95;4.32;;;;;;;23.52;60.04;98614.28;5075084;28;20089;-47
2022/07/12 04:09:42;;;;;;;8.93;4.50;;;;;;;23.46;59.85;98613.09;5074994;28;20127;-45
2022/07/12 04:12:08;;;;;;;7.35;4.43;;;;;;;23.40;60.10;98637.56;5075323;28;20127;-44
2022/07/12 04:14:34;;;;;;;5.65;4.45;;;;;;;23.32;60.45;98623.44;5075117;28;20050;-44
2022/07/12 04:17:00;;;;;;;9.68;5.00;;;;;;;23.36;60.22;98625.63;5093159;28;20089;-44
2022/07/12 04:19:31;;;;;;;11.50;4.88;;;;;;;23.37;60.21;98632.59;5093458;28;20048;-44
2022/07/12 04:21:58;;;;;;;6.88;4.90;;;;;;;23.35;60.44;98626.59;5093118;28;20508;-44
2022/07/12 04:24:24;;;;;;;9.05;4.82;;;;;;;23.31;60.60;98630.56;5093339;28;20090;-44
2022/07/12 04:26:50;;;;;;;9.48;5.63;;;;;;;23.25;60.90;98625.91;5075101;28;20093;-44
2022/07/12 04:29:16;;;;;;;9.48;5.10;;;;;;;23.27;60.84;98631.88;5093177;28;20036;-45
2022/07/12 04:31:42;;;;;;;7.85;4.82;;;;;;;23.36;60.83;98646.00;5093460;28;20048;-45
2022/07/12 04:34:08;;;;;;;8.63;4.60;;;;;;;23.28;60.48;98620.28;5093075;28;20051;-43
2022/07/12 04:36:34;;;;;;;9.68;4.88;;;;;;;23.52;60.06;98632.84;5079024;28;20135;-46
2022/07/12 04:39:00;;;;;;;8.98;5.10;;;;;;;23.61;59.81;98623.91;5092707;28;20048;-42
2022/07/12 04:41:26;;;;;;;8.85;4.80;;;;;;;23.88;58.79;98639.59;5074954;28;20058;-46
2022/07/12 04:43:52;;;;;;;6.85;4.65;;;;;;;24.02;58.52;98638.16;5093224;28;20032;-46
2022/07/12 04:46:17;;;;;;;8.25;4.80;;;;;;;24.17;57.89;98635.69;5074883;28;20040;-44
2022/07/12 04:48:43;;;;;;;7.13;4.70;;;;;;;24.21;57.38;98637.03;5074786;28;20503;-46
2022/07/12 04:51:09;;;;;;;6.30;4.80;;;;;;;24.34;57.03;98643.50;5041576;28;20245;-44
2022/07/12 04:53:35;;;;;;;7.82;5.00;;;;;;;24.40;56.88;98640.19;5092796;28;20465;-44
2022/07/12 04:56:01;;;;;;;7.57;5.25;;;;;;;24.40;56.58;98644.69;5092637;28;20042;-43
2022/07/12 04:58:27;;;;;;;6.13;4.90;;;;;;;24.31;56.89;98637.69;5074349;28;20059;-45
2022/07/12 05:00:53;;;;;;;8.90;4.90;;;;;;;24.29;56.91;98655.63;5092665;28;20396;-45
2022/07/12 05:03:19;;;;;;;12.95;4.70;;;;;;;24.32;56.69;98644.69;5074070;28;20496;-44
2022/07/12 05:05:45;;;;;;;8.30;4.57;;;;;;;24.39;56.49;98651.81;5092494;28;20135;-45
2022/07/12 05:08:10;;;;;;;6.88;4.55;;;;;;;24.46;56.27;98642.19;5074761;28;20032;-43
2022/07/12 05:10:36;;;;;;;7.82;5.18;;;;;;;24.53;56.01;98639.72;5090605;28;20420;-45
2022/07/12 05:13:02;;;;;;;6.93;5.05;;;;;;;24.60;55.88;98638.03;5092211;28;20035;-45
2022/07/12 05:15:28;;;;;;;7.70;4.72;;;;;;;24.52;55.11;98631.91;5092316;28;20032;-45
2022/07/12 05:17:54;;;;;;;9.00;4.57;;;;;;;24.55;55.10;98650.19;5074374;28;20571;-44
2022/07/12 05:20:22;;;;;;;6.95;4.80;;;;;;;24.68;54.83;98642.53;5091191;28;20075;-43
2022/07/12 05:22:48;;;;;;;8.13;4.05;;;;;;;24.81;54.34;98646.31;5091767;28;20056;-43
2022/07/12 05:25:13;;;;;;;9.50;4.78;;;;;;;24.70;54.26;98627.25;5092425;28;20904;-46
2022/07/12 05:27:39;;;;;;;7.55;4.75;;;;;;;24.59;54.85;98638.22;5090343;28;20072;-44
2022/07/12 05:30:06;;;;;;;4.70;4.30;;;;;;;24.64;55.13;98639.38;5092115;28;20113;-44
2022/07/12 05:32:32;;;;;;;7.43;4.00;;;;;;;24.68;54.24;98658.47;5091599;28;20047;-44
2022/07/12 05:34:58;;;;;;;10.05;4.70;;;;;;;24.43;54.69;98645.19;5092262;28;20139;-44
2022/07/12 05:37:25;;;;;;;8.27;4.40;;;;;;;24.36;54.83;98654.81;5091637;28;20051;-46
2022/07/12 05:39:51;;;;;;;8.18;4.18;;;;;;;24.30;55.20;98654.63;5091802;28;20032;-46
2022/07/12 05:42:18;;;;;;;8.10;4.43;;;;;;;24.24;55.28;98652.63;5092393;28;20503;-44
2022/07/12 05:44:44;;;;;;;8.35;4.22;;;;;;;24.23;55.42;98657.13;5092411;28;20055;-45
2022/07/12 05:47:10;;;;;;;5.30;4.15;;;;;;;24.06;55.52;98628.84;5092148;28;20043;-43
2022/07/12 05:49:35;;;;;;;7.90;4.32;;;;;;;24.24;55.54;98656.13;5091515;28;20112;-44
2022/07/12 05:54:46;;;;;;;7.97;4.40;;;;;;;24.17;55.63;98664.91;5084074;28;20039;-44
2022/07/12 05:57:16;;;;;;;9.90;4.57;;;;;;;24.20;55.61;98652.13;5091064;28;20475;-46
2022/07/12 05:59:42;;;;;;;10.88;4.85;;;;;;;24.29;55.58;98655.63;5090837;28;20538;-44
2022/07/12 06:02:09;;;;;;;7.00;4.28;;;;;;;24.24;55.14;98645.50;5073638;28;20036;-44
2022/07/12 06:04:36;;;;;;;6.28;4.32;;;;;;;24.31;55.07;98648.34;5072912;28;20077;-43
2022/07/12 06:07:02;;;;;;;7.60;4.10;;;;;;;24.37;54.85;98653.00;5083087;28;20040;-46
2022/07/12 06:09:27;;;;;;;6.85;4.55;;;;;;;24.25;55.48;98651.63;5091648;28;20388;-43
2022/07/12 06:11:53;;;;;;;9.55;4.45;;;;;;;24.21;55.17;98674.22;5094411;28;20086;-46
2022/07/12 06:14:19;;;;;;;6.65;4.22;;;;;;;24.28;55.10;98660.13;5090313;28;20058;-44
2022/07/12 06:16:45;;;;;;;18.00;4.20;;;;;;;24.44;55.03;98654.00;5074158;28;20044;-46
2022/07/12 06:19:11;;;;;;;8.50;3.97;;;;;;;24.62;54.74;98657.31;5102931;28;20452;-43
2022/07/12 06:21:37;;;;;;;8.80;4.05;;;;;;;24.77;54.57;98655.63;5078494;28;20092;-43
2022/07/12 06:24:03;;;;;;;6.40;4.38;;;;;;;24.73;54.45;98664.94;5100505;28;20047;-44
2022/07/12 06:26:28;;;;;;;8.55;4.55;;;;;;;24.76;54.39;98677.06;5090907;28;20400;-46
2022/07/12 06:28:54;;;;;;;8.43;4.28;;;;;;;24.74;54.60;98663.97;5058917;28;20028;-45
2022/07/12 06:31:20;;;;;;;5.60;4.10;;;;;;;24.79;54.45;98672.25;5091998;28;20048;-43
2022/07/12 06:33:47;;;;;;;6.65;4.38;;;;;;;24.67;54.63;98668.28;5094748;28;20036;-43
2022/07/12 06:36:12;;;;;;;8.35;4.50;;;;;;;24.49;55.15;98668.44;5066058;28;20638;-42
2022/07/12 06:38:38;;;;;;;6.43;4.00;;;;;;;24.33;55.24;98656.97;5093599;28;20127;-45
2022/07/12 06:41:04;;;;;;;8.93;4.43;;;;;;;24.21;55.66;98660.94;5090206;28;20039;-48
2022/07/12 06:43:30;;;;;;;5.65;4.70;;;;;;;24.21;56.13;98674.22;5076439;28;20048;-44
2022/07/12 06:45:55;;;;;;;7.72;4.57;;;;;;;24.14;56.41;98675.81;5089691;28;20036;-44
2022/07/12 06:48:21;;;;;;;9.15;4.55;;;;;;;24.05;56.64;98690.91;5096496;28;20103;-44
2022/07/12 06:50:47;;;;;;;9.90;4.45;;;;;;;23.91;57.16;98681.75;5102482;28;20050;-45
2022/07/12 06:53:13;;;;;;;12.68;5.28;;;;;;;23.74;58.64;98685.34;5090414;28;20077;-43
2022/07/12 06:55:39;;;;;;;12.20;5.30;;;;;;;22.61;66.95;98681.94;5050397;28;20044;-44
2022/07/12 06:58:05;;;;;;;8.75;5.97;;;;;;;22.02;70.29;98675.44;5081593;28;20043;-45
2022/07/12 07:00:31;;;;;;;9.85;5.47;;;;;;;21.86;70.90;98669.94;5086546;28;20055;-45
2022/07/12 07:02:57;;;;;;;9.27;5.53;;;;;;;21.70;71.31;98653.88;5095701;28;20120;-44
2022/07/12 07:05:22;;;;;;;10.70;5.30;;;;;;;21.91;71.14;98681.72;5096920;28;20066;-44
2022/07/12 07:07:49;;;;;;;11.70;6.30;;;;;;;21.98;70.00;98679.38;5077055;28;20464;-43
2022/07/12 07:10:15;;;;;;;13.70;5.18;;;;;;;22.03;69.17;98684.22;5095437;28;20047;-44
2022/07/12 07:12:41;;;;;;;6.85;4.35;;;;;;;22.21;67.77;98688.53;5092596;28;20530;-43
2022/07/12 07:15:07;;;;;;;8.50;5.13;;;;;;;22.33;66.99;98687.34;5089118;28;20103;-47
2022/07/12 07:17:34;;;;;;;9.98;5.20;;;;;;;22.43;66.60;98679.31;5072064;28;20040;-45
2022/07/12 07:19:59;;;;;;;9.65;5.50;;;;;;;22.54;66.58;98678.25;5077708;28;20043;-45
2022/07/12 07:22:25;;;;;;;7.85;5.32;;;;;;;22.58;66.59;98671.63;5080903;28;20043;-44
2022/07/12 07:24:51;;;;;;;8.02;5.72;;;;;;;22.76;66.46;98686.59;5080367;28;20051;-44
2022/07/12 07:27:17;;;;;;;13.50;5.40;;;;;;;22.79;66.30;98682.78;5094998;28;20051;-47
2022/07/12 07:32:27;;;;;;;8.90;5.28;;;;;;;22.91;65.98;98680.72;5076626;28;20082;-43
2022/07/12 07:34:52;;;;;;;12.60;5.55;;;;;;;22.82;65.85;98676.34;5079439;28;20079;-45
2022/07/12 07:37:19;;;;;;;13.20;6.78;;;;;;;22.99;65.89;98688.72;5094509;28;20039;-43
2022/07/12 07:39:44;;;;;;;10.80;5.57;;;;;;;23.02;65.48;98686.59;5078533;28;20044;-59
2022/07/12 07:42:10;;;;;;;9.43;5.10;;;;;;;23.02;65.11;98691.06;5073277;28;20058;-45
2022/07/12 07:44:37;;;;;;;14.65;5.60;;;;;;;23.03;64.62;98692.75;5075165;28;20628;-48
2022/07/12 07:47:03;;;;;;;11.50;5.63;;;;;;;23.14;64.42;98692.47;5054165;28;20470;-47
2022/07/12 07:49:29;;;;;;;7.70;5.07;;;;;;;23.26;64.26;98704.47;5056282;28;20040;-46
2022/07/12 07:51:55;;;;;;;9.55;5.55;;;;;;;23.49;63.17;98695.03;5082466;28;20036;-49
2022/07/12 07:54:21;;;;;;;11.38;5.38;;;;;;;23.85;61.95;98700.16;5097662;28;20435;-51
2022/07/12 07:56:46;;;;;;;10.02;5.38;;;;;;;24.11;61.37;98698.25;5090152;28;20118;-48
2022/07/12 07:59:12;;;;;;;9.02;5.15;;;;;;;24.20;60.87;98705.25;5077585;28;20040;-47
2022/07/12 08:01:53;;;;;;;8.88;4.97;;;;;;;24.55;60.09;98700.69;5091613;28;20047;-45
2022/07/12 08:04:20;;;;;;;12.82;5.97;;;;;;;24.97;58.58;98703.16;5080430;28;20126;-47
2022/07/12 08:06:47;;;;;;;11.50;5.45;;;;;;;25.01;57.72;98700.03;5072497;28;20058;-48
2022/07/12 08:09:13;;;;;;;9.85;5.22;;;;;;;24.95;58.03;98684.75;5094642;28;20070;-49
2022/07/12 08:11:40;;;;;;;7.55;4.93;;;;;;;25.16;57.72;98710.81;5056577;28;20051;-48
2022/07/12 08:14:07;;;;;;;7.75;4.93;;;;;;;25.29;57.22;98709.28;5059429;28;20052;-49
2022/07/12 08:16:34;;;;;;;11.70;5.03;;;;;;;25.41;56.77;98709.75;5093836;28;20063;-48
2022/07/12 08:19:01;;;;;;;8.38;4.75;;;;;;;25.26;57.07;98704.31;5075985;28;20044;-49
2022/07/12 08:21:27;;;;;;;11.75;4.97;;;;;;;25.13;57.30;98721.78;5086988;28;20032;-46
2022/07/12 08:23:55;;;;;;;11.45;5.40;;;;;;;25.04;57.50;98715.66;5088348;28;20055;-49
2022/07/12 08:26:21;;;;;;;11.52;6.05;;;;;;;25.06;57.89;98718.97;5068714;28;20118;-48
2022/07/12 08:28:47;;;;;;;7.10;4.53;;;;;;;25.38;56.70;98723.41;5087455;28;20131;-47
2022/07/12 08:31:14;;;;;;;10.23;4.68;;;;;;;25.27;56.59;98719.28;5070121;28;20515;-45
2022/07/12 08:33:40;;;;;;;6.75;4.60;;;;;;;24.99;57.39;98735.75;5088517;28;20051;-50
2022/07/12 08:36:08;;;;;;;9.70;4.38;;;;;;;25.01;57.17;98723.97;5051363;28;20040;-47
2022/07/12 08:38:38;;;;;;;8.63;4.47;;;;;;;25.48;56.05;98737.38;5087412;28;20071;-48
2022/07/12 08:41:06;;;;;;;7.28;4.00;;;;;;;26.03;54.11;98720.53;5088404;28;20038;-48
2022/07/12 08:43:34;;;;;;;5.43;3.97;;;;;;;26.92;51.27;98726.16;5071501;28;20036;-49
2022/07/12 08:46:09;;;;;;;4.97;3.53;;;;;;;27.93;48.47;98747.00;5082836;28;20044;-52
2022/07/12 08:48:36;;;;;;;4.07;3.50;;;;;;;29.39;45.16;98732.28;5081353;28;20484;-49
2022/07/12 08:51:04;;;;;;;6.53;3.55;;;;;;;31.07;41.77;98733.34;5088144;28;20040;-47
2022/07/12 08:53:31;;;;;;;5.45;4.32;;;;;;;31.58;41.12;98734.56;5098192;28;20062;-47
2022/07/12 08:55:57;;;;;;;4.85;3.38;;;;;;;30.72;42.33;98742.59;5077521;28;20035;-48
2022/07/12 08:58:23;;;;;;;5.22;3.60;;;;;;;29.69;44.05;98740.06;5074101;28;20119;-52
2022/07/12 09:00:48;;;;;;;4.40;3.30;;;;;;;29.34;44.24;98747.28;5092929;28;20132;-48
2022/07/12 09:03:14;;;;;;;6.88;3.30;;;;;;;28.66;45.41;98751.38;5106104;28;20039;-47
2022/07/12 09:05:48;;;;;;;10.00;3.95;;;;;;;28.90;45.09;98758.19;5101542;28;20048;-48
2022/07/12 09:08:13;;;;;;;7.30;3.70;;;;;;;31.53;40.16;98753.97;5090099;28;20165;-48
2022/07/12 09:11:02;;;;;;;10.25;4.93;;;;;;;32.73;37.73;98750.66;5091239;28;20039;-47
2022/07/12 09:13:50;;;;;;;6.30;3.63;;;;;;;32.87;37.24;98757.59;5091846;28;20134;-49
2022/07/12 09:16:20;;;;;;;5.35;3.63;;;;;;;34.31;35.64;98758.09;5072678;28;20713;-50
2022/07/12 09:18:47;;;;;;;8.73;4.25;;;;;;;35.70;32.88;98756.78;5090294;28;20044;-47
2022/07/12 09:21:24;;;;;;;9.15;4.15;;;;;;;36.64;30.04;98774.44;5091771;28;20572;-51
2022/07/12 09:23:53;;;;;;;6.18;3.92;;;;;;;36.69;30.55;98766.41;5091652;28;20064;-47
2022/07/12 09:26:18;;;;;;;;;;;;;;;37.51;29.32;98774.06;5073335;28;20031;-49
2022/07/12 09:28:44;;;;;;;6.05;3.20;;;;;;;37.05;29.04;98769.78;5056637;28;19923;-53
2022/07/12 09:31:10;;;;;;;3.78;3.33;;;;;;;36.28;29.83;98753.97;5091202;28;20040;-49
2022/07/12 09:36:24;;;;;;;4.35;3.80;;;;;;;36.79;28.16;98763.09;5091002;28;20153;-46
2022/07/12 09:39:00;;;;;;;5.93;3.63;;;;;;;37.20;27.37;98778.19;5095973;28;20556;-45
2022/07/12 09:41:26;;;;;;;6.20;3.20;;;;;;;36.38;28.51;98769.59;5090435;28;20050;-49
2022/07/12 09:43:56;;;;;;;4.50;3.17;;;;;;;34.88;30.34;98774.78;5090897;28;20036;-52
2022/07/12 09:46:22;;;;;;;4.95;3.13;;;;;;;33.16;32.31;98754.31;5072335;28;20040;-50
2022/07/12 09:48:48;;;;;;;7.80;3.70;;;;;;;33.77;32.49;98763.47;5090356;28;20063;-47
2022/07/12 09:51:16;;;;;;;6.43;3.20;;;;;;;33.65;32.92;98779.56;5090044;28;20047;-45
2022/07/12 09:53:47;;;;;;;6.20;4.13;;;;;;;34.12;32.48;98771.81;5072607;28;20032;-47
2022/07/12 09:56:19;;;;;;;6.55;3.20;;;;;;;34.85;31.65;98759.88;5089963;28;20123;-50
2022/07/12 09:58:56;;;;;;;4.90;3.80;;;;;;;35.84;29.90;98769.00;5090840;28;20400;-49
2022/07/12 10:01:23;;;;;;;3.70;3.40;;;;;;;35.43;30.45;98761.03;5090789;28;20039;-47
2022/07/12 10:03:50;;;;;;;7.10;3.72;;;;;;;34.92;30.68;98764.31;5078977;28;20035;-48
2022/07/12 10:06:30;;;;;;;6.53;3.50;;;;;;;33.08;33.50;98775.28;5090306;28;20047;-48
2022/07/12 10:08:56;;;;;;;3.78;3.20;;;;;;;32.02;34.95;98772.28;5089683;28;20483;-48
2022/07/12 10:11:23;;;;;;;8.00;3.47;;;;;;;30.75;36.87;98781.59;5089054;28;20119;-47
2022/07/12 10:13:50;;;;;;;4.28;3.17;;;;;;;29.91;38.64;98781.88;5072278;28;20392;-47
2022/07/12 10:16:24;;;;;;;4.25;3.50;;;;;;;29.54;39.31;98779.56;5089820;28;20047;-48
2022/07/12 10:19:31;;;;;;;6.63;3.15;;;;;;;29.17;40.33;98784.19;5071675;28;20152;-46
2022/07/12 10:22:01;;;;;;;7.97;3.50;;;;;;;30.47;38.48;98787.09;5090425;28;20066;-48
2022/07/12 10:24:32;;;;;;;5.47;3.25;;;;;;;31.80;35.92;98806.69;5090590;28;20056;-48
2022/07/12 10:26:58;;;;;;;4.30;3.70;;;;;;;32.04;36.25;98804.31;5072249;28;20176;-46
2022/07/12 10:29:25;;;;;;;4.30;3.10;;;;;;;32.37;34.78;98805.91;5090640;28;20036;-51
2022/07/12 10:31:52;;;;;;;3.40;3.10;;;;;;;31.04;36.52;98795.50;5072404;28;20097;-47
2022/07/12 10:34:22;;;;;;;4.72;3.35;;;;;;;30.98;36.50;98809.75;5090475;28;20397;-47
2022/07/12 10:36:54;;;;;;;11.00;3.00;;;;;;;31.88;35.26;98840.56;5098739;28;20051;-46
2022/07/12 10:39:27;;;;;;;6.30;3.05;;;;;;;31.03;36.57;98801.94;5090398;28;20135;-52
2022/07/12 10:42:05;;;;;;;3.47;3.17;;;;;;;32.14;34.77;98802.03;5071833;28;20036;-48
2022/07/12 10:44:37;;;;;;;7.60;3.50;;;;;;;33.40;33.29;98797.63;5090652;28;20109;-51
2022/07/12 10:47:04;;;;;;;8.05;3.63;;;;;;;34.57;31.20;98808.22;5071758;28;20513;-49
2022/07/12 10:49:32;;;;;;;8.57;2.90;;;;;;;34.94;29.66;98822.47;5086684;28;20064;-48
2022/07/12 10:52:10;;;;;;;4.68;2.22;;;;;;;35.10;28.49;98805.59;5089758;28;20047;-49
2022/07/12 10:54:51;;;;;;;3.35;2.50;;;;;;;35.10;28.54;98816.41;5093670;28;20051;-46
2022/07/12 10:57:42;;;;;;;2.67;2.05;;;;;;;35.08;28.89;98833.91;5089886;28;20423;-50
2022/07/12 11:00:09;;;;;;;5.15;2.45;;;;;;;34.96;28.17;98822.25;5089633;28;20047;-48
2022/07/12 11:02:35;;;;;;;10.40;2.58;;;;;;;33.52;29.41;98823.63;5090116;28;20105;-47
2022/07/12 11:05:01;;;;;;;5.32;2.00;;;;;;;34.33;28.31;98820.78;5089888;28;20065;-47
2022/07/12 11:07:29;;;;;;;6.00;1.85;;;;;;;35.48;26.54;98824.16;5071775;28;20040;-50
2022/07/12 11:09:55;;;;;;;2.85;1.80;;;;;;;35.47;26.23;98825.22;5089762;28;20454;-47
2022/07/12 11:12:31;;;;;;;3.78;1.25;;;;;;;35.89;25.26;98823.25;5092713;28;20118;-50
2022/07/12 11:15:01;;;;;;;2.42;1.65;;;;;;;35.57;24.69;98832.72;5051979;28;20495;-50
2022/07/12 11:17:31;;;;;;;2.08;1.40;;;;;;;34.80;25.12;98821.03;5069564;28;20097;-52
2022/07/12 11:20:11;;;;;;;3.92;0.90;;;;;;;34.31;25.60;98820.19;5069466;28;20424;-49
2022/07/12 11:22:38;;;;;;;3.20;1.00;;;;;;;33.53;27.06;98832.56;5084976;28;20048;-54
2022/07/12 11:25:10;;;;;;;2.05;1.25;;;;;;;33.04;27.84;98846.78;5088398;28;20036;-48
2022/07/12 11:27:37;;;;;;;3.25;1.60;;;;;;;33.08;27.63;98810.31;5089423;28;20040;-48
2022/07/12 11:30:06;;;;;;;5.95;1.60;;;;;;;34.51;26.00;98829.91;5092429;28;20079;-45
2022/07/12 11:32:43;;;;;;;4.18;1.42;;;;;;;35.39;25.24;98832.81;5054464;28;20043;-49
2022/07/12 11:35:22;;;;;;;3.95;1.85;;;;;;;36.63;24.64;98839.72;5088736;28;20047;-47
2022/07/12 11:37:50;;;;;;;2.33;1.80;;;;;;;37.73;23.16;98834.66;5071195;28;20470;-49
2022/07/12 11:40:22;;;;;;;7.65;1.75;;;;;;;37.94;22.74;98849.34;5071126;28;20035;-48
2022/07/12 11:42:55;;;;;;;2.85;1.67;;;;;;;37.72;22.55;98836.53;5089142;28;20586;-48